sensor_id;sensor_type;location;lat;lon;timestamp;pressure;altitude;pressure_sealevel;temperature;humidity
61113;BME280;47184;57.998;56.184;2023-05-10T00:00:48;100999.66;;;3.57;40.87
61113;BME280;47184;57.998;56.184;2023-05-10T00:03:14;101008.25;;;3.59;41.06
61113;BME280;47184;57.998;56.184;2023-05-10T00:05:40;101008.69;;;3.52;41.20
61113;BME280;47184;57.998;56.184;2023-05-10T00:08:06;101004.38;;;3.51;41.36
61113;BME280;47184;57.998;56.184;2023-05-10T00:10:32;101016.72;;;3.48;41.34
61113;BME280;47184;57.998;56.184;2023-05-10T00:12:58;101011.84;;;3.42;41.30
61113;BME280;47184;57.998;56.184;2023-05-10T00:15:24;101018.47;;;3.48;41.51
61113;BME280;47184;57.998;56.184;2023-05-10T00:17:50;101020.25;;;3.47;41.45
61113;BME280;47184;57.998;56.184;2023-05-10T00:20:16;101021.94;;;3.48;41.76
61113;BME280;47184;57.998;56.184;2023-05-10T00:22:42;101015.88;;;3.48;41.65
61113;BME280;47184;57.998;56.184;2023-05-10T00:25:09;100973.78;;;3.24;41.82
61113;BME280;47184;57.998;56.184;2023-05-10T00:27:36;100970.16;;;3.27;41.80
61113;BME280;47184;57.998;56.184;2023-05-10T00:30:02;101010.38;;;3.53;41.93
61113;BME280;47184;57.998;56.184;2023-05-10T00:32:33;101017.28;;;3.54;41.88
61113;BME280;47184;57.998;56.184;2023-05-10T00:34:59;101010.28;;;3.54;42.07
61113;BME280;47184;57.998;56.184;2023-05-10T00:37:26;101007.88;;;3.51;42.12
61113;BME280;47184;57.998;56.184;2023-05-10T00:39:52;101022.22;;;3.58;42.14
61113;BME280;47184;57.998;56.184;2023-05-10T00:42:19;101015.97;;;3.61;42.10
61113;BME280;47184;57.998;56.184;2023-05-10T00:44:45;100987.22;;;3.46;42.26
61113;BME280;47184;57.998;56.184;2023-05-10T00:47:12;101017.38;;;3.66;42.24
61113;BME280;47184;57.998;56.184;2023-05-10T00:49:38;101006.09;;;3.66;42.27
61113;BME280;47184;57.998;56.184;2023-05-10T00:52:05;101023.75;;;3.77;42.29
61113;BME280;47184;57.998;56.184;2023-05-10T00:54:31;100999.19;;;3.65;42.42
61113;BME280;47184;57.998;56.184;2023-05-10T00:56:58;101027.75;;;3.82;42.52
61113;BME280;47184;57.998;56.184;2023-05-10T00:59:26;101020.56;;;3.86;42.19
61113;BME280;47184;57.998;56.184;2023-05-10T01:01:53;101024.03;;;3.86;42.47
61113;BME280;47184;57.998;56.184;2023-05-10T01:04:19;101017.03;;;3.87;42.27
61113;BME280;47184;57.998;56.184;2023-05-10T01:06:52;101018.44;;;3.92;42.60
61113;BME280;47184;57.998;56.184;2023-05-10T01:09:20;101021.59;;;3.97;42.49
61113;BME280;47184;57.998;56.184;2023-05-10T01:11:47;101019.72;;;4.00;42.59
61113;BME280;47184;57.998;56.184;2023-05-10T01:14:15;101022.81;;;4.06;42.57
61113;BME280;47184;57.998;56.184;2023-05-10T01:16:44;101014.16;;;4.06;42.58
61113;BME280;47184;57.998;56.184;2023-05-10T01:19:30;101022.47;;;4.12;42.57
61113;BME280;47184;57.998;56.184;2023-05-10T01:22:47;101027.13;;;4.21;43.16
61113;BME280;47184;57.998;56.184;2023-05-10T01:25:37;101024.88;;;4.30;42.44
61113;BME280;47184;57.998;56.184;2023-05-10T01:30:57;101020.25;;;4.47;42.74
61113;BME280;47184;57.998;56.184;2023-05-10T01:33:59;101025.66;;;4.59;42.16
61113;BME280;47184;57.998;56.184;2023-05-10T01:39:11;101022.06;;;4.74;42.47
61113;BME280;47184;57.998;56.184;2023-05-10T01:41:54;101017.19;;;4.82;42.82
61113;BME280;47184;57.998;56.184;2023-05-10T01:44:39;100969.69;;;4.61;42.85
61113;BME280;47184;57.998;56.184;2023-05-10T01:47:15;101023.81;;;5.01;42.93
61113;BME280;47184;57.998;56.184;2023-05-10T01:49:49;101020.72;;;5.08;43.54
61113;BME280;47184;57.998;56.184;2023-05-10T01:52:18;101013.09;;;5.18;43.10
61113;BME280;47184;57.998;56.184;2023-05-10T01:54:53;101015.31;;;5.24;43.67
61113;BME280;47184;57.998;56.184;2023-05-10T01:57:23;101013.97;;;5.31;43.61
61113;BME280;47184;57.998;56.184;2023-05-10T01:59:52;101012.41;;;5.41;43.49
61113;BME280;47184;57.998;56.184;2023-05-10T02:02:20;101007.41;;;5.51;43.70
61113;BME280;47184;57.998;56.184;2023-05-10T02:04:49;100987.28;;;5.52;44.35
61113;BME280;47184;57.998;56.184;2023-05-10T02:07:16;100964.94;;;5.46;44.27
61113;BME280;47184;57.998;56.184;2023-05-10T02:09:44;100994.94;;;5.80;43.87
61113;BME280;47184;57.998;56.184;2023-05-10T02:12:15;100997.63;;;5.91;44.23
61113;BME280;47184;57.998;56.184;2023-05-10T02:14:42;100994.63;;;5.98;44.28
61113;BME280;47184;57.998;56.184;2023-05-10T02:17:10;100990.22;;;5.98;44.57
61113;BME280;47184;57.998;56.184;2023-05-10T02:19:39;100993.34;;;6.16;44.05
61113;BME280;47184;57.998;56.184;2023-05-10T02:22:07;100989.25;;;6.25;44.77
61113;BME280;47184;57.998;56.184;2023-05-10T02:24:34;100962.72;;;6.16;44.59
61113;BME280;47184;57.998;56.184;2023-05-10T02:27:03;100990.44;;;6.44;44.34
61113;BME280;47184;57.998;56.184;2023-05-10T02:29:31;100991.13;;;6.59;44.28
61113;BME280;47184;57.998;56.184;2023-05-10T02:31:59;100985.88;;;6.59;44.37
61113;BME280;47184;57.998;56.184;2023-05-10T02:34:27;100984.88;;;6.73;44.25
61113;BME280;47184;57.998;56.184;2023-05-10T02:36:55;100990.19;;;6.84;44.14
61113;BME280;47184;57.998;56.184;2023-05-10T02:39:22;100990.38;;;6.94;43.62
61113;BME280;47184;57.998;56.184;2023-05-10T02:41:51;100987.66;;;7.07;43.47
61113;BME280;47184;57.998;56.184;2023-05-10T02:44:19;100975.72;;;7.14;43.40
61113;BME280;47184;57.998;56.184;2023-05-10T02:46:46;100926.75;;;7.02;43.16
61113;BME280;47184;57.998;56.184;2023-05-10T02:49:14;100969.63;;;7.49;42.83
61113;BME280;47184;57.998;56.184;2023-05-10T02:51:44;100975.38;;;7.65;42.63
61113;BME280;47184;57.998;56.184;2023-05-10T02:54:19;100966.53;;;7.77;42.64
61113;BME280;47184;57.998;56.184;2023-05-10T02:56:49;100970.97;;;7.88;42.55
61113;BME280;47184;57.998;56.184;2023-05-10T02:59:16;100967.41;;;8.00;42.70
61113;BME280;47184;57.998;56.184;2023-05-10T03:01:42;100932.09;;;7.91;42.14
61113;BME280;47184;57.998;56.184;2023-05-10T03:04:09;100961.63;;;8.17;42.23
61113;BME280;47184;57.998;56.184;2023-05-10T03:06:35;100949.66;;;8.25;42.05
61113;BME280;47184;57.998;56.184;2023-05-10T03:09:02;100965.22;;;8.39;41.48
61113;BME280;47184;57.998;56.184;2023-05-10T03:11:43;100961.97;;;8.47;41.89
61113;BME280;47184;57.998;56.184;2023-05-10T03:14:23;100946.31;;;8.45;41.61
61113;BME280;47184;57.998;56.184;2023-05-10T03:17:06;100952.63;;;8.54;41.56
61113;BME280;47184;57.998;56.184;2023-05-10T03:19:49;100950.44;;;8.59;40.99
61113;BME280;47184;57.998;56.184;2023-05-10T03:22:25;100940.75;;;8.59;40.83
61113;BME280;47184;57.998;56.184;2023-05-10T03:24:55;100943.50;;;8.58;40.59
61113;BME280;47184;57.998;56.184;2023-05-10T03:27:26;100926.53;;;8.51;40.28
61113;BME280;47184;57.998;56.184;2023-05-10T03:29:55;100941.78;;;8.68;39.90
61113;BME280;47184;57.998;56.184;2023-05-10T03:32:22;100942.25;;;8.73;39.69
61113;BME280;47184;57.998;56.184;2023-05-10T03:34:49;100944.84;;;8.84;39.52
61113;BME280;47184;57.998;56.184;2023-05-10T03:37:15;100938.31;;;9.00;39.08
61113;BME280;47184;57.998;56.184;2023-05-10T03:39:41;100941.00;;;9.09;38.45
61113;BME280;47184;57.998;56.184;2023-05-10T03:42:09;100929.13;;;9.15;38.54
61113;BME280;47184;57.998;56.184;2023-05-10T03:44:40;100934.03;;;9.20;37.76
61113;BME280;47184;57.998;56.184;2023-05-10T03:47:08;100927.53;;;9.24;38.12
61113;BME280;47184;57.998;56.184;2023-05-10T03:49:34;100921.72;;;9.30;36.84
61113;BME280;47184;57.998;56.184;2023-05-10T03:52:01;100898.78;;;9.21;37.12
61113;BME280;47184;57.998;56.184;2023-05-10T03:54:27;100883.22;;;9.17;36.39
61113;BME280;47184;57.998;56.184;2023-05-10T03:56:53;100921.84;;;9.49;36.15
61113;BME280;47184;57.998;56.184;2023-05-10T03:59:21;100912.88;;;9.61;36.12
61113;BME280;47184;57.998;56.184;2023-05-10T04:01:47;100916.25;;;9.73;36.10
61113;BME280;47184;57.998;56.184;2023-05-10T04:04:13;100905.63;;;9.84;35.88
61113;BME280;47184;57.998;56.184;2023-05-10T04:06:39;100911.34;;;9.99;35.07
61113;BME280;47184;57.998;56.184;2023-05-10T04:09:05;100898.56;;;9.95;34.98
61113;BME280;47184;57.998;56.184;2023-05-10T04:11:31;100910.25;;;10.11;35.26
61113;BME280;47184;57.998;56.184;2023-05-10T04:13:58;100910.91;;;10.25;34.82
61113;BME280;47184;57.998;56.184;2023-05-10T04:16:24;100878.59;;;10.11;34.51
61113;BME280;47184;57.998;56.184;2023-05-10T04:18:50;100913.13;;;10.29;34.28
61113;BME280;47184;57.998;56.184;2023-05-10T04:21:17;100890.69;;;10.24;34.34
61113;BME280;47184;57.998;56.184;2023-05-10T04:23:43;100906.03;;;10.39;34.15
61113;BME280;47184;57.998;56.184;2023-05-10T04:26:09;100904.53;;;10.37;33.86
61113;BME280;47184;57.998;56.184;2023-05-10T04:28:35;100884.34;;;10.36;33.51
61113;BME280;47184;57.998;56.184;2023-05-10T04:31:05;100905.66;;;10.54;33.46
61113;BME280;47184;57.998;56.184;2023-05-10T04:33:32;100866.69;;;10.36;33.13
61113;BME280;47184;57.998;56.184;2023-05-10T04:36:00;100884.09;;;10.58;33.50
61113;BME280;47184;57.998;56.184;2023-05-10T04:38:27;100890.50;;;10.75;32.59
61113;BME280;47184;57.998;56.184;2023-05-10T04:41:08;100887.44;;;10.80;32.64
61113;BME280;47184;57.998;56.184;2023-05-10T04:43:35;100879.91;;;10.85;32.82
61113;BME280;47184;57.998;56.184;2023-05-10T04:46:01;100903.00;;;11.02;32.52
61113;BME280;47184;57.998;56.184;2023-05-10T04:48:28;100889.59;;;11.13;32.80
61113;BME280;47184;57.998;56.184;2023-05-10T04:50:54;100887.22;;;11.20;32.77
61113;BME280;47184;57.998;56.184;2023-05-10T04:53:21;100888.88;;;11.31;32.17
61113;BME280;47184;57.998;56.184;2023-05-10T04:55:47;100874.41;;;11.35;32.23
61113;BME280;47184;57.998;56.184;2023-05-10T04:58:13;100886.31;;;11.49;32.00
61113;BME280;47184;57.998;56.184;2023-05-10T05:00:40;100883.06;;;11.55;32.06
61113;BME280;47184;57.998;56.184;2023-05-10T05:03:06;100882.78;;;11.58;31.40
61113;BME280;47184;57.998;56.184;2023-05-10T05:05:32;100884.44;;;11.59;31.95
61113;BME280;47184;57.998;56.184;2023-05-10T05:07:58;100884.53;;;11.67;31.38
61113;BME280;47184;57.998;56.184;2023-05-10T05:10:24;100879.22;;;11.77;31.19
61113;BME280;47184;57.998;56.184;2023-05-10T05:12:50;100859.72;;;11.78;31.44
61113;BME280;47184;57.998;56.184;2023-05-10T05:15:17;100850.66;;;11.80;30.92
61113;BME280;47184;57.998;56.184;2023-05-10T05:17:43;100841.91;;;11.80;30.11
61113;BME280;47184;57.998;56.184;2023-05-10T05:20:10;100854.66;;;11.94;30.31
61113;BME280;47184;57.998;56.184;2023-05-10T05:22:37;100861.94;;;12.10;30.30
61113;BME280;47184;57.998;56.184;2023-05-10T05:25:04;100860.66;;;12.32;30.52
61113;BME280;47184;57.998;56.184;2023-05-10T05:27:32;100867.16;;;12.55;30.60
61113;BME280;47184;57.998;56.184;2023-05-10T05:29:58;100846.09;;;12.72;30.36
61113;BME280;47184;57.998;56.184;2023-05-10T05:32:25;100857.75;;;12.79;29.79
61113;BME280;47184;57.998;56.184;2023-05-10T05:34:51;100858.22;;;12.74;29.21
61113;BME280;47184;57.998;56.184;2023-05-10T05:37:19;100852.88;;;12.92;29.24
61113;BME280;47184;57.998;56.184;2023-05-10T05:39:47;100850.22;;;13.36;28.86
61113;BME280;47184;57.998;56.184;2023-05-10T05:42:14;100837.53;;;14.15;28.75
61113;BME280;47184;57.998;56.184;2023-05-10T05:44:42;100827.28;;;14.93;27.90
61113;BME280;47184;57.998;56.184;2023-05-10T05:47:08;100821.03;;;15.81;27.11
61113;BME280;47184;57.998;56.184;2023-05-10T05:49:34;100844.00;;;16.97;26.15
61113;BME280;47184;57.998;56.184;2023-05-10T05:52:02;100839.97;;;17.30;25.45
61113;BME280;47184;57.998;56.184;2023-05-10T05:54:30;100827.81;;;17.43;24.52
61113;BME280;47184;57.998;56.184;2023-05-10T05:56:58;100834.25;;;17.78;23.81
61113;BME280;47184;57.998;56.184;2023-05-10T05:59:24;100823.44;;;18.44;23.15
61113;BME280;47184;57.998;56.184;2023-05-10T06:01:50;100814.38;;;18.88;22.23
61113;BME280;47184;57.998;56.184;2023-05-10T06:04:17;100821.91;;;19.47;21.98
61113;BME280;47184;57.998;56.184;2023-05-10T06:06:43;100823.19;;;20.12;20.83
61113;BME280;47184;57.998;56.184;2023-05-10T06:09:09;100821.44;;;20.66;20.49
61113;BME280;47184;57.998;56.184;2023-05-10T06:11:36;100823.84;;;21.34;20.15
61113;BME280;47184;57.998;56.184;2023-05-10T06:14:03;100819.00;;;22.39;18.88
61113;BME280;47184;57.998;56.184;2023-05-10T06:16:30;100807.81;;;23.29;18.55
61113;BME280;47184;57.998;56.184;2023-05-10T06:18:56;100805.78;;;24.09;17.59
61113;BME280;47184;57.998;56.184;2023-05-10T06:21:22;100806.59;;;25.10;17.29
61113;BME280;47184;57.998;56.184;2023-05-10T06:23:49;100800.28;;;25.57;16.64
61113;BME280;47184;57.998;56.184;2023-05-10T06:26:15;100786.56;;;26.04;16.43
61113;BME280;47184;57.998;56.184;2023-05-10T06:28:41;100761.91;;;26.67;15.79
61113;BME280;47184;57.998;56.184;2023-05-10T06:31:08;100796.84;;;27.90;15.52
61113;BME280;47184;57.998;56.184;2023-05-10T06:33:34;100795.63;;;28.73;14.88
61113;BME280;47184;57.998;56.184;2023-05-10T06:36:00;100777.09;;;28.00;13.98
61113;BME280;47184;57.998;56.184;2023-05-10T06:38:26;100795.81;;;28.98;14.09
61113;BME280;47184;57.998;56.184;2023-05-10T06:40:52;100781.16;;;29.62;13.60
61113;BME280;47184;57.998;56.184;2023-05-10T06:43:18;100778.78;;;30.32;13.07
61113;BME280;47184;57.998;56.184;2023-05-10T06:45:44;100774.38;;;30.87;12.75
61113;BME280;47184;57.998;56.184;2023-05-10T06:48:10;100768.16;;;31.46;12.79
61113;BME280;47184;57.998;56.184;2023-05-10T06:50:37;100778.81;;;31.92;11.84
61113;BME280;47184;57.998;56.184;2023-05-10T06:53:03;100766.50;;;31.50;12.10
61113;BME280;47184;57.998;56.184;2023-05-10T06:55:29;100772.94;;;32.14;11.59
61113;BME280;47184;57.998;56.184;2023-05-10T06:57:55;100778.47;;;32.96;11.53
61113;BME280;47184;57.998;56.184;2023-05-10T07:00:21;100776.34;;;32.88;11.35
61113;BME280;47184;57.998;56.184;2023-05-10T07:02:47;100766.88;;;33.04;11.13
61113;BME280;47184;57.998;56.184;2023-05-10T07:05:14;100770.03;;;34.11;10.57
61113;BME280;47184;57.998;56.184;2023-05-10T07:07:40;100772.28;;;34.42;10.42
61113;BME280;47184;57.998;56.184;2023-05-10T07:10:07;100766.72;;;34.61;10.40
61113;BME280;47184;57.998;56.184;2023-05-10T07:12:33;100722.63;;;34.11;10.20
61113;BME280;47184;57.998;56.184;2023-05-10T07:14:59;100725.25;;;33.83;10.31
61113;BME280;47184;57.998;56.184;2023-05-10T07:17:25;100739.72;;;34.54;10.01
61113;BME280;47184;57.998;56.184;2023-05-10T07:19:52;100715.94;;;35.05;9.93
61113;BME280;47184;57.998;56.184;2023-05-10T07:22:18;100730.03;;;34.57;9.86
61113;BME280;47184;57.998;56.184;2023-05-10T07:24:45;100730.06;;;34.84;9.71
61113;BME280;47184;57.998;56.184;2023-05-10T07:27:11;100721.31;;;34.96;9.30
61113;BME280;47184;57.998;56.184;2023-05-10T07:29:38;100729.94;;;34.15;9.52
61113;BME280;47184;57.998;56.184;2023-05-10T07:32:05;100735.31;;;33.88;9.84
61113;BME280;47184;57.998;56.184;2023-05-10T07:34:32;100724.22;;;33.98;9.83
61113;BME280;47184;57.998;56.184;2023-05-10T07:36:58;100728.34;;;35.16;9.59
61113;BME280;47184;57.998;56.184;2023-05-10T07:39:26;100723.91;;;36.32;9.32
61113;BME280;47184;57.998;56.184;2023-05-10T07:41:52;100735.16;;;37.50;8.89
61113;BME280;47184;57.998;56.184;2023-05-10T07:44:18;100712.59;;;37.74;8.39
61113;BME280;47184;57.998;56.184;2023-05-10T07:46:46;100708.81;;;37.01;8.60
61113;BME280;47184;57.998;56.184;2023-05-10T07:49:13;100688.53;;;36.88;8.41
61113;BME280;47184;57.998;56.184;2023-05-10T07:51:40;100726.34;;;36.65;8.28
61113;BME280;47184;57.998;56.184;2023-05-10T07:54:06;100714.25;;;35.90;8.51
61113;BME280;47184;57.998;56.184;2023-05-10T07:56:32;100694.44;;;35.20;8.97
61113;BME280;47184;57.998;56.184;2023-05-10T07:59:04;100692.31;;;35.17;8.44
61113;BME280;47184;57.998;56.184;2023-05-10T08:01:33;100675.66;;;35.14;8.52
61113;BME280;47184;57.998;56.184;2023-05-10T08:04:00;100698.34;;;34.78;8.79
61113;BME280;47184;57.998;56.184;2023-05-10T08:06:27;100695.66;;;34.45;8.74
61113;BME280;47184;57.998;56.184;2023-05-10T08:08:56;100689.16;;;34.41;8.93
61113;BME280;47184;57.998;56.184;2023-05-10T08:11:22;100694.56;;;34.74;8.83
61113;BME280;47184;57.998;56.184;2023-05-10T08:13:50;100683.53;;;34.52;8.72
61113;BME280;47184;57.998;56.184;2023-05-10T08:16:16;100688.63;;;34.58;8.71
61113;BME280;47184;57.998;56.184;2023-05-10T08:18:44;100667.63;;;34.90;8.83
61113;BME280;47184;57.998;56.184;2023-05-10T08:21:14;100662.56;;;34.28;8.80
61113;BME280;47184;57.998;56.184;2023-05-10T08:23:40;100673.03;;;34.95;8.95
61113;BME280;47184;57.998;56.184;2023-05-10T08:26:06;100670.03;;;35.78;8.75
61113;BME280;47184;57.998;56.184;2023-05-10T08:28:32;100673.59;;;36.01;8.60
61113;BME280;47184;57.998;56.184;2023-05-10T08:30:59;100670.50;;;36.73;8.60
61113;BME280;47184;57.998;56.184;2023-05-10T08:33:25;100658.59;;;37.73;7.79
61113;BME280;47184;57.998;56.184;2023-05-10T08:35:51;100666.84;;;37.99;7.90
61113;BME280;47184;57.998;56.184;2023-05-10T08:38:18;100665.72;;;37.83;7.93
61113;BME280;47184;57.998;56.184;2023-05-10T08:40:44;100634.50;;;37.44;7.62
61113;BME280;47184;57.998;56.184;2023-05-10T08:43:12;100651.50;;;37.37;7.97
61113;BME280;47184;57.998;56.184;2023-05-10T08:45:41;100649.28;;;38.04;7.78
61113;BME280;47184;57.998;56.184;2023-05-10T08:48:09;100644.50;;;39.10;7.31
61113;BME280;47184;57.998;56.184;2023-05-10T08:50:38;100637.91;;;38.82;7.14
61113;BME280;47184;57.998;56.184;2023-05-10T08:53:06;100644.47;;;37.83;7.16
61113;BME280;47184;57.998;56.184;2023-05-10T08:55:35;100636.66;;;38.03;7.56
61113;BME280;47184;57.998;56.184;2023-05-10T08:58:08;100640.53;;;38.49;7.40
61113;BME280;47184;57.998;56.184;2023-05-10T09:00:35;100630.63;;;39.19;6.88
61113;BME280;47184;57.998;56.184;2023-05-10T09:03:04;100631.13;;;39.00;7.04
61113;BME280;47184;57.998;56.184;2023-05-10T09:05:31;100619.72;;;39.23;7.12
61113;BME280;47184;57.998;56.184;2023-05-10T09:07:57;100625.31;;;39.68;7.14
61113;BME280;47184;57.998;56.184;2023-05-10T09:10:26;100620.88;;;40.00;6.63
61113;BME280;47184;57.998;56.184;2023-05-10T09:12:56;100619.81;;;39.93;7.16
61113;BME280;47184;57.998;56.184;2023-05-10T09:15:22;100627.84;;;40.19;6.87
61113;BME280;47184;57.998;56.184;2023-05-10T09:17:49;100608.72;;;39.35;7.03
61113;BME280;47184;57.998;56.184;2023-05-10T09:20:15;100608.81;;;39.26;6.98
61113;BME280;47184;57.998;56.184;2023-05-10T09:22:44;100604.28;;;39.22;6.99
61113;BME280;47184;57.998;56.184;2023-05-10T09:25:14;100605.88;;;38.60;7.32
61113;BME280;47184;57.998;56.184;2023-05-10T09:27:46;100576.00;;;38.32;7.29
61113;BME280;47184;57.998;56.184;2023-05-10T09:30:31;100594.88;;;37.75;7.41
61113;BME280;47184;57.998;56.184;2023-05-10T09:32:58;100585.66;;;36.58;7.29
61113;BME280;47184;57.998;56.184;2023-05-10T09:35:27;100597.13;;;36.03;7.57
61113;BME280;47184;57.998;56.184;2023-05-10T09:37:55;100593.38;;;35.99;7.86
61113;BME280;47184;57.998;56.184;2023-05-10T09:40:27;100592.50;;;36.29;7.98
61113;BME280;47184;57.998;56.184;2023-05-10T09:43:06;100583.09;;;37.57;7.67
61113;BME280;47184;57.998;56.184;2023-05-10T09:45:35;100580.38;;;37.95;7.66
61113;BME280;47184;57.998;56.184;2023-05-10T09:48:03;100589.66;;;38.58;7.12
61113;BME280;47184;57.998;56.184;2023-05-10T09:50:30;100581.88;;;38.22;7.12
61113;BME280;47184;57.998;56.184;2023-05-10T09:53:00;100590.31;;;37.79;7.46
61113;BME280;47184;57.998;56.184;2023-05-10T09:55:39;100586.06;;;37.99;7.44
61113;BME280;47184;57.998;56.184;2023-05-10T09:58:06;100565.66;;;37.91;7.47
61113;BME280;47184;57.998;56.184;2023-05-10T10:00:37;100557.72;;;38.19;7.47
61113;BME280;47184;57.998;56.184;2023-05-10T10:03:04;100564.06;;;39.12;6.94
61113;BME280;47184;57.998;56.184;2023-05-10T10:05:35;100565.03;;;39.61;7.08
61113;BME280;47184;57.998;56.184;2023-05-10T10:08:05;100539.03;;;38.75;7.09
61113;BME280;47184;57.998;56.184;2023-05-10T10:10:32;100540.16;;;39.16;7.18
61113;BME280;47184;57.998;56.184;2023-05-10T10:12:59;100558.97;;;40.54;7.01
61113;BME280;47184;57.998;56.184;2023-05-10T10:15:26;100558.09;;;41.78;6.32
61113;BME280;47184;57.998;56.184;2023-05-10T10:17:52;100529.25;;;42.49;5.92
61113;BME280;47184;57.998;56.184;2023-05-10T10:20:20;100555.84;;;43.05;5.90
61113;BME280;47184;57.998;56.184;2023-05-10T10:22:47;100545.03;;;43.23;5.61
61113;BME280;47184;57.998;56.184;2023-05-10T10:25:15;100542.94;;;43.59;5.74
61113;BME280;47184;57.998;56.184;2023-05-10T10:36:12;100527.50;;;38.73;7.04
61113;BME280;47184;57.998;56.184;2023-05-10T10:41:32;100529.44;;;38.01;7.21
61113;BME280;47184;57.998;56.184;2023-05-10T10:44:35;100527.31;;;38.28;7.29
61113;BME280;47184;57.998;56.184;2023-05-10T10:47:22;100516.75;;;39.13;7.01
61113;BME280;47184;57.998;56.184;2023-05-10T10:52:25;100510.66;;;39.66;6.37
61113;BME280;47184;57.998;56.184;2023-05-10T10:57:55;100514.91;;;39.63;6.59
61113;BME280;47184;57.998;56.184;2023-05-10T11:03:06;100513.78;;;38.64;6.98
61113;BME280;47184;57.998;56.184;2023-05-10T11:05:34;100504.09;;;37.70;7.32
61113;BME280;47184;57.998;56.184;2023-05-10T11:10:33;100476.38;;;37.66;7.47
61113;BME280;47184;57.998;56.184;2023-05-10T11:15:36;100488.72;;;38.49;7.05
61113;BME280;47184;57.998;56.184;2023-05-10T11:18:28;100481.00;;;38.42;6.96
61113;BME280;47184;57.998;56.184;2023-05-10T11:21:02;100481.34;;;38.11;7.15
61113;BME280;47184;57.998;56.184;2023-05-10T11:23:31;100447.91;;;37.83;6.98
61113;BME280;47184;57.998;56.184;2023-05-10T11:25:59;100485.03;;;37.38;7.29
61113;BME280;47184;57.998;56.184;2023-05-10T11:28:26;100471.81;;;37.14;7.56
61113;BME280;47184;57.998;56.184;2023-05-10T11:30:54;100444.19;;;37.49;7.51
61113;BME280;47184;57.998;56.184;2023-05-10T11:33:21;100473.25;;;38.56;7.22
61113;BME280;47184;57.998;56.184;2023-05-10T11:35:48;100465.88;;;39.14;7.02
61113;BME280;47184;57.998;56.184;2023-05-10T11:38:14;100457.75;;;38.64;7.09
61113;BME280;47184;57.998;56.184;2023-05-10T11:40:41;100472.56;;;37.88;7.25
61113;BME280;47184;57.998;56.184;2023-05-10T11:43:08;100448.56;;;37.80;7.72
61113;BME280;47184;57.998;56.184;2023-05-10T11:45:36;100452.53;;;38.50;7.43
61113;BME280;47184;57.998;56.184;2023-05-10T11:48:03;100446.97;;;38.71;7.21
61113;BME280;47184;57.998;56.184;2023-05-10T11:50:29;100454.66;;;38.24;7.35
61113;BME280;47184;57.998;56.184;2023-05-10T11:52:56;100456.91;;;38.01;7.43
61113;BME280;47184;57.998;56.184;2023-05-10T11:55:23;100448.59;;;38.09;7.26
61113;BME280;47184;57.998;56.184;2023-05-10T11:57:53;100440.50;;;38.25;7.45
61113;BME280;47184;57.998;56.184;2023-05-10T12:00:20;100433.44;;;39.11;7.27
61113;BME280;47184;57.998;56.184;2023-05-10T12:02:48;100435.13;;;39.04;7.01
61113;BME280;47184;57.998;56.184;2023-05-10T12:05:14;100428.91;;;37.13;7.68
61113;BME280;47184;57.998;56.184;2023-05-10T12:07:41;100443.00;;;35.59;8.46
61113;BME280;47184;57.998;56.184;2023-05-10T12:10:10;100424.06;;;33.87;8.99
61113;BME280;47184;57.998;56.184;2023-05-10T12:12:43;100429.53;;;32.47;9.46
61113;BME280;47184;57.998;56.184;2023-05-10T12:17:45;100419.78;;;33.25;9.40
61113;BME280;47184;57.998;56.184;2023-05-10T12:20:22;100413.94;;;34.51;9.04
61113;BME280;47184;57.998;56.184;2023-05-10T12:22:54;100408.22;;;36.03;8.67
61113;BME280;47184;57.998;56.184;2023-05-10T12:25:23;100414.19;;;37.48;8.24
61113;BME280;47184;57.998;56.184;2023-05-10T12:27:54;100402.59;;;38.22;7.87
61113;BME280;47184;57.998;56.184;2023-05-10T12:30:27;100411.84;;;37.67;7.91
61113;BME280;47184;57.998;56.184;2023-05-10T12:33:12;100405.88;;;37.95;7.61
61113;BME280;47184;57.998;56.184;2023-05-10T12:35:51;100395.03;;;38.85;7.41
61113;BME280;47184;57.998;56.184;2023-05-10T12:38:34;100407.00;;;39.47;7.21
61113;BME280;47184;57.998;56.184;2023-05-10T12:41:06;100381.84;;;39.03;7.50
61113;BME280;47184;57.998;56.184;2023-05-10T12:43:33;100361.94;;;38.64;7.21
61113;BME280;47184;57.998;56.184;2023-05-10T12:46:11;100391.13;;;38.86;6.98
61113;BME280;47184;57.998;56.184;2023-05-10T12:48:39;100391.59;;;38.55;7.42
61113;BME280;47184;57.998;56.184;2023-05-10T12:51:06;100372.31;;;37.63;7.83
61113;BME280;47184;57.998;56.184;2023-05-10T12:53:35;100391.34;;;37.09;8.11
61113;BME280;47184;57.998;56.184;2023-05-10T12:56:01;100377.31;;;36.76;8.21
61113;BME280;47184;57.998;56.184;2023-05-10T12:58:28;100364.72;;;36.31;7.91
61113;BME280;47184;57.998;56.184;2023-05-10T13:00:54;100362.78;;;36.14;8.09
61113;BME280;47184;57.998;56.184;2023-05-10T13:03:22;100373.25;;;35.86;8.27
61113;BME280;47184;57.998;56.184;2023-05-10T13:05:49;100373.78;;;36.14;7.99
61113;BME280;47184;57.998;56.184;2023-05-10T13:08:15;100384.13;;;36.00;8.26
61113;BME280;47184;57.998;56.184;2023-05-10T13:10:41;100381.34;;;33.99;8.87
61113;BME280;47184;57.998;56.184;2023-05-10T13:13:08;100370.84;;;32.02;9.86
61113;BME280;47184;57.998;56.184;2023-05-10T13:15:34;100367.19;;;30.18;10.49
61113;BME280;47184;57.998;56.184;2023-05-10T13:18:00;100376.53;;;28.71;11.25
61113;BME280;47184;57.998;56.184;2023-05-10T13:20:27;100355.75;;;27.40;11.75
61113;BME280;47184;57.998;56.184;2023-05-10T13:22:53;100377.00;;;26.47;12.44
61113;BME280;47184;57.998;56.184;2023-05-10T13:25:20;100344.47;;;25.49;13.05
61113;BME280;47184;57.998;56.184;2023-05-10T13:27:46;100357.47;;;24.96;13.59